NDF56 EDDH-EKCH
Flight info
| Callsign | NDF56 |
|---|---|
| Flight time | 0h 35m |
| Altitude | 19000 |
| Route | LUGEG3G/33 LUGEG P605 GESKA Z711 MONAK MONAK5A |
| Aircraft | C750/M-SBDE3FGHRWXY/S |
Departure
| Time | 2026-05-05 18:47 |
|---|---|
| Airport | Hamburg Helmut Schmidt Airport (EDDH) |
Arrival
| Time | 2026-05-05 19:22 |
|---|---|
| Airport | Copenhagen Kastrup Airport (EKCH) |
| Time | Latitude | Longitude | Altitude | Speed | Heading |
|---|---|---|---|---|---|
| 2026-05-05 18:02 | 53.62551 | 10.00378 | 45 ft | 0 kts | 243° |
| 2026-05-05 18:39 | 53.62550 | 10.00374 | 72 ft | 3 kts | 243° |
| 2026-05-05 18:40 | 53.62548 | 10.00332 | 45 ft | 5 kts | 298° |
| 2026-05-05 18:40 | 53.62581 | 10.00268 | 45 ft | 6 kts | 295° |
| 2026-05-05 18:40 | 53.62574 | 10.00215 | 44 ft | 4 kts | 232° |
| 2026-05-05 18:40 | 53.62563 | 10.00186 | 44 ft | 0 kts | 238° |
| 2026-05-05 18:41 | 53.62558 | 10.00174 | 43 ft | 4 kts | 240° |
| 2026-05-05 18:41 | 53.62545 | 10.00127 | 43 ft | 0 kts | 249° |
| 2026-05-05 18:42 | 53.62541 | 10.00109 | 43 ft | 2 kts | 249° |
| 2026-05-05 18:42 | 53.62537 | 10.00072 | 44 ft | 6 kts | 272° |
| 2026-05-05 18:42 | 53.62563 | 10.00014 | 44 ft | 6 kts | 324° |
| 2026-05-05 18:42 | 53.62609 | 9.99968 | 43 ft | 8 kts | 333° |
| 2026-05-05 18:43 | 53.62658 | 9.99924 | 43 ft | 7 kts | 333° |
| 2026-05-05 18:43 | 53.62702 | 9.99886 | 42 ft | 6 kts | 331° |
| 2026-05-05 18:43 | 53.62738 | 9.99852 | 42 ft | 5 kts | 331° |
| 2026-05-05 18:43 | 53.62769 | 9.99824 | 42 ft | 4 kts | 331° |
| 2026-05-05 18:44 | 53.62792 | 9.99802 | 42 ft | 3 kts | 331° |
| 2026-05-05 18:44 | 53.62805 | 9.99791 | 42 ft | 1 kts | 331° |
| 2026-05-05 18:44 | 53.62819 | 9.99778 | 42 ft | 2 kts | 331° |
| 2026-05-05 18:44 | 53.62827 | 9.99770 | 42 ft | 1 kts | 331° |
| 2026-05-05 18:45 | 53.62835 | 9.99763 | 42 ft | 2 kts | 331° |
| 2026-05-05 18:45 | 53.62846 | 9.99753 | 42 ft | 3 kts | 331° |
| 2026-05-05 18:45 | 53.62948 | 9.99667 | 41 ft | 33 kts | 334° |
| 2026-05-05 18:45 | 53.63294 | 9.99367 | 43 ft | 86 kts | 333° |
| 2026-05-05 18:46 | 53.64029 | 9.98745 | 62 ft | 140 kts | 336° |
| 2026-05-05 18:46 | 53.64929 | 9.97883 | 217 ft | 154 kts | 332° |
| 2026-05-05 18:46 | 53.65885 | 9.96905 | 275 ft | 170 kts | 331° |
| 2026-05-05 18:46 | 53.66941 | 9.95848 | 463 ft | 180 kts | 332° |
| 2026-05-05 18:47 | 53.68081 | 9.94980 | 736 ft | 181 kts | 345° |
| 2026-05-05 18:47 | 53.69300 | 9.94522 | 1026 ft | 179 kts | 1° |
| 2026-05-05 18:47 | 53.70542 | 9.94660 | 1360 ft | 180 kts | 5° |
| 2026-05-05 18:47 | 53.71796 | 9.94704 | 1696 ft | 180 kts | 4° |
| 2026-05-05 18:48 | 53.72993 | 9.95084 | 1953 ft | 170 kts | 27° |
| 2026-05-05 18:48 | 53.73903 | 9.96334 | 2247 ft | 174 kts | 51° |
| 2026-05-05 18:48 | 53.74474 | 9.98117 | 2555 ft | 178 kts | 64° |
| 2026-05-05 18:48 | 53.75040 | 10.00055 | 2901 ft | 190 kts | 63° |
| 2026-05-05 18:49 | 53.75640 | 10.02096 | 3244 ft | 198 kts | 64° |
| 2026-05-05 18:49 | 53.76258 | 10.04237 | 3575 ft | 207 kts | 64° |
| 2026-05-05 18:49 | 53.76908 | 10.06493 | 3910 ft | 220 kts | 64° |
| 2026-05-05 18:49 | 53.77598 | 10.08888 | 4260 ft | 233 kts | 64° |
| 2026-05-05 18:50 | 53.78324 | 10.11408 | 4605 ft | 244 kts | 64° |
| 2026-05-05 18:50 | 53.79078 | 10.14030 | 4935 ft | 251 kts | 64° |
| 2026-05-05 18:50 | 53.79857 | 10.16740 | 5249 ft | 259 kts | 64° |
| 2026-05-05 18:50 | 53.80639 | 10.19463 | 5632 ft | 260 kts | 64° |
| 2026-05-05 18:51 | 53.81442 | 10.22264 | 6153 ft | 269 kts | 64° |
| 2026-05-05 18:51 | 53.82265 | 10.25140 | 6657 ft | 274 kts | 64° |
| 2026-05-05 18:51 | 53.83104 | 10.28073 | 7165 ft | 278 kts | 64° |
| 2026-05-05 18:51 | 53.83951 | 10.31039 | 7664 ft | 281 kts | 64° |
| 2026-05-05 18:52 | 53.84804 | 10.34030 | 8176 ft | 284 kts | 64° |
| 2026-05-05 18:52 | 53.85375 | 10.36035 | 8516 ft | 286 kts | 63° |
| 2026-05-05 18:52 | 53.86244 | 10.39087 | 9033 ft | 290 kts | 63° |
| 2026-05-05 18:52 | 53.87123 | 10.42180 | 9566 ft | 293 kts | 63° |
| 2026-05-05 18:53 | 53.87987 | 10.45222 | 9925 ft | 301 kts | 63° |
| 2026-05-05 18:53 | 53.88634 | 10.47500 | 9913 ft | 302 kts | 63° |
| 2026-05-05 18:53 | 53.89534 | 10.50683 | 9900 ft | 298 kts | 63° |
| 2026-05-05 18:53 | 53.90431 | 10.53853 | 9903 ft | 298 kts | 63° |
| 2026-05-05 18:54 | 53.91310 | 10.56966 | 10326 ft | 292 kts | 64° |
| 2026-05-05 18:54 | 53.92200 | 10.60114 | 10821 ft | 298 kts | 64° |
| 2026-05-05 18:54 | 53.93099 | 10.63306 | 11335 ft | 302 kts | 64° |
| 2026-05-05 18:54 | 53.94047 | 10.66523 | 11816 ft | 305 kts | 59° |
| 2026-05-05 18:55 | 53.95379 | 10.69265 | 12280 ft | 306 kts | 45° |
| 2026-05-05 18:55 | 53.96876 | 10.71868 | 12813 ft | 310 kts | 44° |
| 2026-05-05 18:55 | 53.98375 | 10.74530 | 13353 ft | 313 kts | 45° |
| 2026-05-05 18:55 | 53.99855 | 10.77263 | 13879 ft | 316 kts | 46° |
| 2026-05-05 18:56 | 54.01356 | 10.80024 | 14350 ft | 319 kts | 45° |
| 2026-05-05 18:56 | 54.02880 | 10.82789 | 14838 ft | 322 kts | 45° |
| 2026-05-05 18:56 | 54.04418 | 10.85584 | 15328 ft | 325 kts | 45° |
| 2026-05-05 18:56 | 54.05967 | 10.88420 | 15825 ft | 328 kts | 45° |
| 2026-05-05 18:57 | 54.07528 | 10.91281 | 16330 ft | 332 kts | 45° |
| 2026-05-05 18:57 | 54.09112 | 10.94180 | 16845 ft | 335 kts | 45° |
| 2026-05-05 18:57 | 54.10703 | 10.97097 | 17374 ft | 338 kts | 45° |
| 2026-05-05 18:57 | 54.12317 | 11.00063 | 17909 ft | 342 kts | 45° |
| 2026-05-05 18:58 | 54.13917 | 11.03027 | 18414 ft | 346 kts | 45° |
| 2026-05-05 18:58 | 54.15550 | 11.06060 | 18879 ft | 350 kts | 45° |
| 2026-05-05 18:58 | 54.17219 | 11.09156 | 18915 ft | 354 kts | 45° |
| 2026-05-05 18:58 | 54.18878 | 11.12238 | 18910 ft | 351 kts | 45° |
| 2026-05-05 18:59 | 54.20530 | 11.15311 | 18907 ft | 351 kts | 45° |
| 2026-05-05 18:59 | 54.22184 | 11.18393 | 18907 ft | 351 kts | 45° |
| 2026-05-05 18:59 | 54.23829 | 11.21472 | 18910 ft | 351 kts | 45° |
| 2026-05-05 18:59 | 54.25476 | 11.24558 | 18914 ft | 351 kts | 45° |
| 2026-05-05 19:00 | 54.27100 | 11.27600 | 18915 ft | 351 kts | 45° |
| 2026-05-05 19:00 | 54.28746 | 11.30689 | 18915 ft | 351 kts | 45° |
| 2026-05-05 19:00 | 54.30392 | 11.33782 | 18919 ft | 352 kts | 45° |
| 2026-05-05 19:00 | 54.32043 | 11.36888 | 18916 ft | 352 kts | 45° |
| 2026-05-05 19:01 | 54.33690 | 11.39992 | 18915 ft | 352 kts | 45° |
| 2026-05-05 19:01 | 54.35336 | 11.43097 | 18917 ft | 352 kts | 45° |
| 2026-05-05 19:01 | 54.36984 | 11.46210 | 18917 ft | 353 kts | 45° |
| 2026-05-05 19:01 | 54.38635 | 11.49326 | 18924 ft | 354 kts | 44° |
| 2026-05-05 19:02 | 54.40340 | 11.52530 | 18934 ft | 374 kts | 44° |
| 2026-05-05 19:02 | 54.42137 | 11.55917 | 18932 ft | 393 kts | 45° |
| 2026-05-05 19:02 | 54.44016 | 11.59478 | 18936 ft | 410 kts | 45° |
| 2026-05-05 19:02 | 54.45926 | 11.63108 | 18933 ft | 418 kts | 45° |
| 2026-05-05 19:03 | 54.47915 | 11.66883 | 18931 ft | 421 kts | 45° |
| 2026-05-05 19:03 | 54.49859 | 11.70567 | 18934 ft | 423 kts | 45° |
| 2026-05-05 19:03 | 54.51870 | 11.74380 | 18931 ft | 436 kts | 45° |
| 2026-05-05 19:03 | 54.53944 | 11.78321 | 18931 ft | 450 kts | 45° |
| 2026-05-05 19:04 | 54.56069 | 11.82379 | 18930 ft | 462 kts | 45° |
| 2026-05-05 19:04 | 54.58244 | 11.86534 | 18938 ft | 471 kts | 45° |
| 2026-05-05 19:04 | 54.60445 | 11.90744 | 18936 ft | 474 kts | 45° |
| 2026-05-05 19:04 | 54.62633 | 11.95024 | 18924 ft | 477 kts | 48° |
| 2026-05-05 19:05 | 54.64478 | 11.99807 | 18915 ft | 480 kts | 59° |
| 2026-05-05 19:05 | 54.65870 | 12.05062 | 18914 ft | 482 kts | 69° |
| 2026-05-05 19:05 | 54.66762 | 12.10668 | 18917 ft | 483 kts | 78° |
| 2026-05-05 19:05 | 54.67122 | 12.16356 | 18915 ft | 483 kts | 88° |
| 2026-05-05 19:06 | 54.66955 | 12.22145 | 18910 ft | 482 kts | 98° |
| 2026-05-05 19:06 | 54.66269 | 12.27814 | 18912 ft | 481 kts | 108° |
| 2026-05-05 19:06 | 54.65297 | 12.33325 | 18874 ft | 482 kts | 103° |
| 2026-05-05 19:06 | 54.64928 | 12.39072 | 18918 ft | 481 kts | 94° |
| 2026-05-05 19:07 | 54.65042 | 12.44631 | 18913 ft | 446 kts | 84° |
| 2026-05-05 19:07 | 54.65578 | 12.49747 | 18908 ft | 425 kts | 75° |
| 2026-05-05 19:07 | 54.66542 | 12.54617 | 18881 ft | 428 kts | 64° |
| 2026-05-05 19:07 | 54.68144 | 12.58829 | 18915 ft | 409 kts | 52° |
| 2026-05-05 19:08 | 54.69712 | 12.62899 | 18890 ft | 408 kts | 49° |
| 2026-05-05 19:08 | 54.71767 | 12.66087 | 18880 ft | 383 kts | 27° |
| 2026-05-05 19:08 | 54.74149 | 12.67659 | 18897 ft | 353 kts | 7° |
| 2026-05-05 19:08 | 54.76446 | 12.68193 | 18902 ft | 320 kts | 355° |
| 2026-05-05 19:09 | 54.78649 | 12.68004 | 18630 ft | 313 kts | 345° |
| 2026-05-05 19:09 | 54.80695 | 12.67161 | 18134 ft | 285 kts | 335° |
| 2026-05-05 19:09 | 54.82517 | 12.66087 | 17567 ft | 274 kts | 334° |
| 2026-05-05 19:09 | 54.84342 | 12.65072 | 17016 ft | 276 kts | 337° |
| 2026-05-05 19:10 | 54.86207 | 12.64211 | 16487 ft | 284 kts | 339° |
| 2026-05-05 19:10 | 54.88143 | 12.63322 | 16013 ft | 288 kts | 339° |
| 2026-05-05 19:10 | 54.90068 | 12.62392 | 15528 ft | 286 kts | 338° |
| 2026-05-05 19:10 | 54.91986 | 12.61453 | 15046 ft | 285 kts | 339° |
| 2026-05-05 19:11 | 54.93872 | 12.60541 | 14583 ft | 285 kts | 339° |
| 2026-05-05 19:11 | 54.95775 | 12.59625 | 14100 ft | 284 kts | 339° |
| 2026-05-05 19:11 | 54.97678 | 12.58705 | 13616 ft | 283 kts | 339° |
| 2026-05-05 19:11 | 54.99572 | 12.57786 | 13071 ft | 282 kts | 340° |
| 2026-05-05 19:12 | 55.01461 | 12.56870 | 12564 ft | 281 kts | 340° |
| 2026-05-05 19:12 | 55.03342 | 12.55958 | 12051 ft | 280 kts | 340° |
| 2026-05-05 19:12 | 55.05217 | 12.55047 | 11545 ft | 280 kts | 340° |
| 2026-05-05 19:12 | 55.07198 | 12.54072 | 11065 ft | 313 kts | 341° |
| 2026-05-05 19:13 | 55.09382 | 12.53002 | 10633 ft | 342 kts | 341° |
| 2026-05-05 19:13 | 55.11678 | 12.51899 | 10196 ft | 341 kts | 342° |
| 2026-05-05 19:13 | 55.13967 | 12.50792 | 9734 ft | 340 kts | 342° |
| 2026-05-05 19:13 | 55.16242 | 12.49674 | 9213 ft | 339 kts | 342° |
| 2026-05-05 19:14 | 55.18503 | 12.48564 | 8603 ft | 337 kts | 342° |
| 2026-05-05 19:14 | 55.20749 | 12.47467 | 8016 ft | 332 kts | 343° |
| 2026-05-05 19:14 | 55.22896 | 12.46420 | 7979 ft | 299 kts | 343° |
| 2026-05-05 19:14 | 55.24822 | 12.45477 | 7979 ft | 281 kts | 342° |
| 2026-05-05 19:15 | 55.26723 | 12.44536 | 7981 ft | 286 kts | 342° |
| 2026-05-05 19:15 | 55.28611 | 12.43605 | 7956 ft | 287 kts | 342° |
| 2026-05-05 19:15 | 55.30548 | 12.42654 | 7327 ft | 279 kts | 343° |
| 2026-05-05 19:15 | 55.32326 | 12.41782 | 6663 ft | 258 kts | 344° |
| 2026-05-05 19:16 | 55.34061 | 12.40922 | 5947 ft | 259 kts | 345° |
| 2026-05-05 19:16 | 55.35785 | 12.40070 | 5161 ft | 255 kts | 345° |
| 2026-05-05 19:16 | 55.37473 | 12.39236 | 4383 ft | 244 kts | 346° |
| 2026-05-05 19:16 | 55.39034 | 12.38464 | 3584 ft | 226 kts | 346° |
| 2026-05-05 19:17 | 55.40286 | 12.37845 | 2926 ft | 222 kts | 346° |
| 2026-05-05 19:17 | 55.41759 | 12.37118 | 2142 ft | 229 kts | 346° |
| 2026-05-05 19:17 | 55.43303 | 12.36967 | 1963 ft | 216 kts | 12° |
| 2026-05-05 19:17 | 55.44659 | 12.38016 | 1981 ft | 219 kts | 34° |
| 2026-05-05 19:18 | 55.45832 | 12.39759 | 2012 ft | 221 kts | 40° |
| 2026-05-05 19:18 | 55.46993 | 12.41555 | 2010 ft | 223 kts | 40° |
| 2026-05-05 19:18 | 55.48165 | 12.43354 | 2005 ft | 223 kts | 39° |
| 2026-05-05 19:18 | 55.49330 | 12.45133 | 2009 ft | 218 kts | 40° |
| 2026-05-05 19:19 | 55.50427 | 12.46825 | 1988 ft | 199 kts | 39° |
| 2026-05-05 19:19 | 55.51447 | 12.48396 | 1978 ft | 191 kts | 39° |
| 2026-05-05 19:19 | 55.52472 | 12.49960 | 1844 ft | 198 kts | 39° |
| 2026-05-05 19:19 | 55.53475 | 12.51508 | 1571 ft | 179 kts | 40° |
| 2026-05-05 19:20 | 55.54332 | 12.52837 | 1326 ft | 151 kts | 39° |
| 2026-05-05 19:20 | 55.55066 | 12.53957 | 1097 ft | 134 kts | 39° |
| 2026-05-05 19:20 | 55.55747 | 12.55011 | 955 ft | 128 kts | 39° |
| 2026-05-05 19:20 | 55.56423 | 12.56054 | 775 ft | 130 kts | 38° |
| 2026-05-05 19:21 | 55.57118 | 12.57126 | 603 ft | 137 kts | 39° |
| 2026-05-05 19:21 | 55.57838 | 12.58237 | 416 ft | 140 kts | 38° |
| 2026-05-05 19:21 | 55.58560 | 12.59352 | 228 ft | 139 kts | 38° |
| 2026-05-05 19:21 | 55.59284 | 12.60464 | 49 ft | 134 kts | 37° |
| 2026-05-05 19:22 | 55.59899 | 12.61375 | 20 ft | 73 kts | 40° |
| 2026-05-05 19:22 | 55.60081 | 12.61650 | 22 ft | 24 kts | 41° |
| 2026-05-05 19:22 | 55.60196 | 12.61832 | 21 ft | 22 kts | 41° |
| 2026-05-05 19:22 | 55.60322 | 12.62027 | 20 ft | 26 kts | 41° |
| 2026-05-05 19:23 | 55.60462 | 12.62224 | 23 ft | 24 kts | 31° |
| 2026-05-05 19:23 | 55.60578 | 12.62314 | 22 ft | 14 kts | 19° |
| 2026-05-05 19:23 | 55.60611 | 12.62329 | 22 ft | 0 kts | 13° |
| 2026-05-05 19:23 | 55.60635 | 12.62339 | 22 ft | 10 kts | 13° |
| 2026-05-05 19:24 | 55.60734 | 12.62380 | 21 ft | 19 kts | 8° |
| 2026-05-05 19:24 | 55.60859 | 12.62497 | 20 ft | 9 kts | 43° |
| 2026-05-05 19:24 | 55.60927 | 12.62604 | 20 ft | 17 kts | 41° |
| 2026-05-05 19:24 | 55.61038 | 12.62776 | 21 ft | 24 kts | 40° |
| 2026-05-05 19:25 | 55.61165 | 12.62970 | 22 ft | 23 kts | 41° |
| 2026-05-05 19:25 | 55.61283 | 12.63150 | 21 ft | 21 kts | 41° |
| 2026-05-05 19:25 | 55.61389 | 12.63316 | 20 ft | 19 kts | 41° |
| 2026-05-05 19:25 | 55.61485 | 12.63464 | 20 ft | 17 kts | 41° |
| 2026-05-05 19:26 | 55.61572 | 12.63599 | 20 ft | 16 kts | 41° |
| 2026-05-05 19:26 | 55.61650 | 12.63720 | 20 ft | 14 kts | 41° |
| 2026-05-05 19:26 | 55.61725 | 12.63834 | 20 ft | 15 kts | 43° |
| 2026-05-05 19:26 | 55.61810 | 12.63972 | 20 ft | 19 kts | 43° |
| 2026-05-05 19:27 | 55.61926 | 12.64112 | 20 ft | 20 kts | 28° |
| 2026-05-05 19:27 | 55.62048 | 12.64213 | 20 ft | 18 kts | 27° |
| 2026-05-05 19:27 | 55.62133 | 12.64284 | 22 ft | 10 kts | 24° |
| 2026-05-05 19:27 | 55.62213 | 12.64363 | 18 ft | 20 kts | 43° |
| 2026-05-05 19:28 | 55.62182 | 12.64559 | 20 ft | 17 kts | 123° |
| 2026-05-05 19:28 | 55.62106 | 12.64764 | 22 ft | 20 kts | 122° |
| 2026-05-05 19:28 | 55.62082 | 12.64831 | 21 ft | 4 kts | 122° |
| 2026-05-05 19:28 | 55.62069 | 12.64868 | 21 ft | 4 kts | 122° |
| 2026-05-05 19:29 | 55.61995 | 12.65068 | 19 ft | 33 kts | 123° |
| 2026-05-05 19:29 | 55.61837 | 12.65494 | 20 ft | 44 kts | 122° |
| 2026-05-05 19:29 | 55.61688 | 12.65905 | 24 ft | 35 kts | 121° |
| 2026-05-05 19:29 | 55.61650 | 12.66210 | 21 ft | 19 kts | 71° |
| 2026-05-05 19:30 | 55.61717 | 12.66350 | 22 ft | 13 kts | 30° |
| 2026-05-05 19:30 | 55.61797 | 12.66403 | 20 ft | 11 kts | 11° |
| 2026-05-05 19:30 | 55.61839 | 12.66456 | 23 ft | 4 kts | 66° |
| 2026-05-05 19:30 | 55.61851 | 12.66536 | 20 ft | 11 kts | 79° |
| 2026-05-05 19:31 | 55.61877 | 12.66631 | 20 ft | 7 kts | 9° |
| 2026-05-05 19:31 | 55.61918 | 12.66619 | 22 ft | 8 kts | 346° |
| 2026-05-05 19:31 | 55.61937 | 12.66611 | 20 ft | 0 kts | 348° |